Time;durP1;ratioP1;P1;durP2;ratioP2;P2;SDS_P1;SDS_P2;PMS_P1;PMS_P2;Temp;Humidity;BMP_temperature;BMP_pressure;BME280_temperature;BME280_humidity;BME280_pressure;Samples;Min_cycle;Max_cycle;Signal;HPM_P1;HPM_P2
2022/05/31 00:02:01;;;;;;;;;;;6.40;99.90;;;;;;5073225;28;19904;-50
2022/05/31 00:04:27;;;;;;;;;;;6.40;99.90;;;;;;5073539;28;19904;-51
2022/05/31 00:06:52;;;;;;;;;;;6.30;99.90;;;;;;5073418;28;20340;-50
2022/05/31 00:09:18;;;;;;;;;;;6.30;99.90;;;;;;5073589;28;19905;-50
2022/05/31 00:11:43;;;;;;;;;;;6.20;99.90;;;;;;5072924;28;20328;-51
2022/05/31 00:14:10;;;;;;;;;;;6.20;99.90;;;;;;5073295;28;20470;-49
2022/05/31 00:16:36;;;;;;;;;;;6.20;99.90;;;;;;5072920;28;20279;-49
2022/05/31 00:19:02;;;;;;;;;;;6.20;99.90;;;;;;5072656;28;19908;-48
2022/05/31 00:21:38;;;;;;;;;;;6.20;99.90;;;;;;5072942;28;19950;-49
2022/05/31 00:24:05;;;;;;;;;;;6.10;99.90;;;;;;5072757;28;19927;-49
2022/05/31 00:26:31;;;;;;;;;;;6.10;99.90;;;;;;5072355;28;19993;-52
2022/05/31 00:28:56;;;;;;;;;;;6.00;99.90;;;;;;5072669;28;19940;-48
2022/05/31 00:31:22;;;;;;;;;;;6.10;99.90;;;;;;5071563;28;20326;-49
2022/05/31 00:33:47;;;;;;;;;;;6.00;99.90;;;;;;5072780;28;19904;-47
2022/05/31 00:36:13;;;;;;;;;;;6.00;99.90;;;;;;5072830;28;19991;-54
2022/05/31 00:38:38;;;;;;;;;;;6.00;99.90;;;;;;5072520;28;19915;-50
2022/05/31 00:41:23;;;;;;;;;;;5.90;99.90;;;;;;5072359;28;20568;-49
2022/05/31 00:43:49;;;;;;;;;;;5.90;99.90;;;;;;5071363;28;20531;-48
2022/05/31 00:46:15;;;;;;;;;;;5.80;99.90;;;;;;5072313;28;19904;-49
2022/05/31 00:48:45;;;;;;;;;;;5.80;99.90;;;;;;5072722;28;19908;-49
2022/05/31 00:51:13;;;;;;;;;;;5.70;99.90;;;;;;5071314;28;20290;-50
2022/05/31 00:53:40;;;;;;;;;;;5.70;99.90;;;;;;5071662;28;19911;-49
2022/05/31 00:56:26;;;;;;;;;;;5.70;99.90;;;;;;5072550;28;19932;-48
2022/05/31 00:58:55;;;;;;;;;;;5.70;99.90;;;;;;5072173;28;19931;-49
2022/05/31 01:01:20;;;;;;;;;;;5.70;99.90;;;;;;5072239;28;19942;-51
2022/05/31 01:03:47;;;;;;;;;;;5.70;99.90;;;;;;5072312;28;19909;-50
2022/05/31 01:06:12;;;;;;;;;;;5.70;99.90;;;;;;5072507;28;19904;-47
2022/05/31 01:08:42;;;;;;;;;;;5.80;99.90;;;;;;5072361;28;19904;-50
2022/05/31 01:11:08;;;;;;;;;;;5.80;99.90;;;;;;5072119;28;19912;-48
2022/05/31 01:13:33;;;;;;;;;;;5.80;99.90;;;;;;5072108;28;19904;-51
2022/05/31 01:16:03;;;;;;;;;;;5.90;99.90;;;;;;5071915;28;20003;-50
2022/05/31 01:18:29;;;;;;;;;;;5.90;99.90;;;;;;5070870;28;19908;-48
2022/05/31 01:20:55;;;;;;;;;;;5.90;99.90;;;;;;5071289;28;19904;-50
2022/05/31 01:23:22;;;;;;;;;;;5.80;99.90;;;;;;5071783;28;20379;-49
2022/05/31 01:26:00;;;;;;;;;;;5.80;99.90;;;;;;5071432;28;19911;-51
2022/05/31 01:28:25;;;;;;;;;;;5.70;99.90;;;;;;5071671;28;20008;-49
2022/05/31 01:30:55;;;;;;;;;;;5.70;99.90;;;;;;5071860;28;19943;-49
2022/05/31 01:33:23;;;;;;;;;;;5.70;99.90;;;;;;5071696;28;19911;-50
2022/05/31 01:35:49;;;;;;;;;;;5.70;99.90;;;;;;5071709;28;19904;-49
2022/05/31 01:38:23;;;;;;;;;;;5.60;99.90;;;;;;5071708;28;19931;-51
2022/05/31 01:40:48;;;;;;;;;;;5.70;99.90;;;;;;5071440;28;19904;-49
2022/05/31 01:43:14;;;;;;;;;;;5.60;99.90;;;;;;5071531;28;19905;-49
2022/05/31 01:45:44;;;;;;;;;;;5.60;99.90;;;;;;5071670;28;20289;-49
2022/05/31 01:48:10;;;;;;;;;;;5.60;99.90;;;;;;5071339;28;19924;-52
2022/05/31 01:50:36;;;;;;;;;;;5.70;99.90;;;;;;5071758;28;20256;-50
2022/05/31 01:53:03;;;;;;;;;;;5.70;99.90;;;;;;5071696;28;19909;-49
2022/05/31 01:55:30;;;;;;;;;;;5.70;99.90;;;;;;5071697;28;19909;-49
2022/05/31 01:57:58;;;;;;;;;;;5.60;99.90;;;;;;5071638;28;19915;-49
2022/05/31 02:00:24;;;;;;;;;;;5.60;99.90;;;;;;5071676;28;19932;-50
2022/05/31 02:02:51;;;;;;;;;;;5.60;99.90;;;;;;5071043;28;20332;-49
2022/05/31 02:05:17;;;;;;;;;;;5.60;99.90;;;;;;5073880;28;19996;-47
2022/05/31 02:07:51;;;;;;;;;;;5.70;99.90;;;;;;5075749;28;19904;-50
2022/05/31 02:10:17;;;;;;;;;;;5.70;99.90;;;;;;5075477;28;19905;-49
2022/05/31 02:12:42;;;;;;;;;;;5.70;99.90;;;;;;5075704;28;20414;-49
2022/05/31 02:15:08;;;;;;;;;;;5.70;99.90;;;;;;5075552;28;20525;-47
2022/05/31 02:17:34;;;;;;;;;;;5.70;99.90;;;;;;5075011;28;19905;-50
2022/05/31 02:19:59;;;;;;;;;;;5.80;99.90;;;;;;5075188;28;19908;-50
2022/05/31 02:22:27;;;;;;;;;;;5.80;99.90;;;;;;5075392;28;19904;-52
2022/05/31 02:24:52;;;;;;;;;;;5.90;99.90;;;;;;5074095;28;20506;-51
2022/05/31 02:27:18;;;;;;;;;;;5.90;99.90;;;;;;5074132;28;19987;-50
2022/05/31 02:29:44;;;;;;;;;;;6.00;99.90;;;;;;5075375;28;19947;-48
2022/05/31 02:32:10;;;;;;;;;;;6.10;99.90;;;;;;5075056;28;19954;-52
2022/05/31 02:34:38;;;;;;;;;;;6.10;99.90;;;;;;5075175;28;19908;-51
2022/05/31 02:37:04;;;;;;;;;;;6.30;99.90;;;;;;5074568;28;19916;-49
2022/05/31 02:39:30;;;;;;;;;;;6.40;99.90;;;;;;5074968;28;19908;-51
2022/05/31 02:41:56;;;;;;;;;;;6.50;99.90;;;;;;5074188;28;19908;-50
2022/05/31 02:44:23;;;;;;;;;;;6.60;99.90;;;;;;5074547;28;19944;-50
2022/05/31 02:46:48;;;;;;;;;;;6.70;99.90;;;;;;5073183;28;20317;-50
2022/05/31 02:49:15;;;;;;;;;;;6.60;99.90;;;;;;5074258;28;19936;-52
2022/05/31 02:51:42;;;;;;;;;;;6.70;99.90;;;;;;5074767;28;19912;-48
2022/05/31 02:54:11;;;;;;;;;;;6.80;99.90;;;;;;5073469;28;19904;-51
2022/05/31 02:56:36;;;;;;;;;;;6.80;99.90;;;;;;5074618;28;19994;-50
2022/05/31 02:59:02;;;;;;;;;;;6.90;99.90;;;;;;5074213;28;20015;-50
2022/05/31 03:01:29;;;;;;;;;;;7.00;99.90;;;;;;5074188;28;19944;-48
2022/05/31 03:03:54;;;;;;;;;;;7.00;99.90;;;;;;5074571;28;19905;-50
2022/05/31 03:06:20;;;;;;;;;;;7.00;99.90;;;;;;5074645;28;20355;-50
2022/05/31 03:08:46;;;;;;;;;;;7.10;99.90;;;;;;5074384;28;19908;-48
2022/05/31 03:11:23;;;;;;;;;;;7.10;99.90;;;;;;5073649;28;19912;-49
2022/05/31 03:13:50;;;;;;;;;;;7.20;99.90;;;;;;5073808;28;19911;-48
2022/05/31 03:16:17;;;;;;;;;;;7.20;99.90;;;;;;5073150;28;19908;-53
2022/05/31 03:19:01;;;;;;;;;;;7.20;99.90;;;;;;5074274;28;19908;-50
2022/05/31 03:21:30;;;;;;;;;;;7.20;99.90;;;;;;5074195;28;19905;-49
2022/05/31 03:23:58;;;;;;;;;;;7.20;99.90;;;;;;5073917;28;20061;-50
2022/05/31 03:26:25;;;;;;;;;;;7.20;99.90;;;;;;5073957;28;19904;-50
2022/05/31 03:28:51;;;;;;;;;;;7.20;99.90;;;;;;5073332;28;19905;-50
2022/05/31 03:31:17;;;;;;;;;;;7.20;99.90;;;;;;5073408;28;19912;-52
2022/05/31 03:33:42;;;;;;;;;;;7.30;99.90;;;;;;5074060;28;19904;-47
2022/05/31 03:36:08;;;;;;;;;;;7.40;99.90;;;;;;5072245;28;20301;-50
2022/05/31 03:38:33;;;;;;;;;;;7.40;99.90;;;;;;5074034;28;19908;-52
2022/05/31 03:41:00;;;;;;;;;;;7.50;99.90;;;;;;5073342;28;19911;-49
2022/05/31 03:43:33;;;;;;;;;;;7.50;99.90;;;;;;5073816;28;19950;-49
2022/05/31 03:45:59;;;;;;;;;;;7.50;99.90;;;;;;5073625;28;19987;-48
2022/05/31 03:48:25;;;;;;;;;;;7.60;99.90;;;;;;5073718;28;19987;-49
2022/05/31 03:51:00;;;;;;;;;;;7.60;99.90;;;;;;5073558;28;20383;-53
2022/05/31 03:53:26;;;;;;;;;;;7.60;99.90;;;;;;5073418;28;19908;-50
2022/05/31 03:55:52;;;;;;;;;;;7.60;99.90;;;;;;5073100;28;20356;-50
2022/05/31 03:58:17;;;;;;;;;;;7.60;99.90;;;;;;5073137;28;19930;-50
2022/05/31 04:00:43;;;;;;;;;;;7.60;99.90;;;;;;5072315;28;20365;-48
2022/05/31 04:03:08;;;;;;;;;;;7.70;99.90;;;;;;5073462;28;20002;-50
2022/05/31 04:05:34;;;;;;;;;;;7.80;99.90;;;;;;5073395;28;20322;-48
2022/05/31 04:08:06;;;;;;;;;;;8.00;99.90;;;;;;5072075;28;19951;-54
2022/05/31 04:10:32;;;;;;;;;;;8.10;99.90;;;;;;5073490;28;19905;-48
2022/05/31 04:12:58;;;;;;;;;;;8.20;99.90;;;;;;5073387;28;19912;-49
2022/05/31 04:15:23;;;;;;;;;;;8.30;99.90;;;;;;5073208;28;20463;-52
2022/05/31 04:17:49;;;;;;;;;;;8.40;99.90;;;;;;5072949;28;19936;-48
2022/05/31 04:20:14;;;;;;;;;;;8.60;99.90;;;;;;5073219;28;19904;-50
2022/05/31 04:22:40;;;;;;;;;;;8.70;99.90;;;;;;5072889;28;19917;-49
2022/05/31 04:25:06;;;;;;;;;;;8.80;99.90;;;;;;5073121;28;19908;-50
2022/05/31 04:27:31;;;;;;;;;;;8.90;99.90;;;;;;5072577;28;19950;-50
2022/05/31 04:29:57;;;;;;;;;;;8.90;99.90;;;;;;5072516;28;19904;-47
2022/05/31 04:32:23;;;;;;;;;;;9.00;99.90;;;;;;5072856;28;19904;-48
2022/05/31 04:34:48;;;;;;;;;;;9.10;99.90;;;;;;5072697;28;20397;-50
2022/05/31 04:37:14;;;;;;;;;;;9.20;99.90;;;;;;5071504;28;20341;-49
2022/05/31 04:39:40;;;;;;;;;;;9.30;99.90;;;;;;5072708;28;19909;-53
2022/05/31 04:42:07;;;;;;;;;;;9.30;99.90;;;;;;5072610;28;20372;-47
2022/05/31 04:44:33;;;;;;;;;;;9.40;99.90;;;;;;5072629;28;20264;-49
2022/05/31 04:46:59;;;;;;;;;;;9.40;99.90;;;;;;5072599;28;19912;-53
2022/05/31 04:49:24;;;;;;;;;;;9.40;99.90;;;;;;5071157;28;19910;-55
2022/05/31 04:51:50;;;;;;;;;;;9.50;99.90;;;;;;5072512;28;19958;-59
2022/05/31 04:54:19;;;;;;;;;;;9.50;99.90;;;;;;5072526;28;19905;-51
2022/05/31 04:56:44;;;;;;;;;;;9.60;99.90;;;;;;5072404;28;19995;-52
2022/05/31 04:59:10;;;;;;;;;;;9.60;99.90;;;;;;5072344;28;19999;-52
2022/05/31 05:01:36;;;;;;;;;;;9.80;99.90;;;;;;5071990;28;19942;-51
2022/05/31 05:04:02;;;;;;;;;;;9.90;99.90;;;;;;5071434;28;19995;-52
2022/05/31 05:06:27;;;;;;;;;;;10.10;99.90;;;;;;5071690;28;20000;-47
2022/05/31 05:08:53;;;;;;;;;;;10.30;99.90;;;;;;5072186;28;20271;-50
2022/05/31 05:11:19;;;;;;;;;;;10.50;99.90;;;;;;5072287;28;19911;-51
2022/05/31 05:13:45;;;;;;;;;;;10.60;99.90;;;;;;5072276;28;19904;-50
2022/05/31 05:16:11;;;;;;;;;;;10.70;99.90;;;;;;5072209;28;20414;-55
2022/05/31 05:18:37;;;;;;;;;;;10.80;99.90;;;;;;5072098;28;19919;-47
2022/05/31 05:21:04;;;;;;;;;;;10.80;99.90;;;;;;5071953;28;20439;-46
2022/05/31 05:23:29;;;;;;;;;;;10.90;99.90;;;;;;5072517;28;20341;-59
2022/05/31 05:25:56;;;;;;;;;;;10.90;99.90;;;;;;5071881;28;19908;-49
2022/05/31 05:31:06;;;;;;;;;;;10.90;99.90;;;;;;5071723;28;19914;-50
2022/05/31 05:33:32;;;;;;;;;;;10.90;99.90;;;;;;5071969;28;20373;-52
2022/05/31 05:35:57;;;;;;;;;;;10.90;99.90;;;;;;5071812;28;19987;-49
2022/05/31 05:38:23;;;;;;;;;;;10.80;99.90;;;;;;5070718;28;20310;-49
2022/05/31 05:40:49;;;;;;;;;;;10.80;99.90;;;;;;5071366;28;20421;-48
2022/05/31 05:43:14;;;;;;;;;;;10.80;99.90;;;;;;5072006;28;19905;-51
2022/05/31 05:45:40;;;;;;;;;;;10.80;99.90;;;;;;5071882;28;19961;-49
2022/05/31 05:48:06;;;;;;;;;;;10.90;99.90;;;;;;5071723;28;19957;-52
2022/05/31 05:50:35;;;;;;;;;;;10.90;99.90;;;;;;5071890;28;19911;-47
2022/05/31 05:53:05;;;;;;;;;;;10.90;99.90;;;;;;5071700;28;19905;-50
2022/05/31 05:55:31;;;;;;;;;;;10.90;99.90;;;;;;5071798;28;19908;-48
2022/05/31 05:57:57;;;;;;;;;;;10.90;99.90;;;;;;5070353;28;20006;-49
2022/05/31 06:00:23;;;;;;;;;;;11.00;99.90;;;;;;5071579;28;20400;-48
2022/05/31 06:02:52;;;;;;;;;;;11.00;99.90;;;;;;5071683;28;19904;-49
2022/05/31 06:05:22;;;;;;;;;;;11.10;99.90;;;;;;5071838;28;19976;-52
2022/05/31 06:07:55;;;;;;;;;;;11.20;99.90;;;;;;5071693;28;20355;-50
2022/05/31 06:10:23;;;;;;;;;;;11.30;99.90;;;;;;5071860;28;19904;-47
2022/05/31 06:12:56;;;;;;;;;;;11.20;99.90;;;;;;5071748;28;19904;-50
2022/05/31 06:15:25;;;;;;;;;;;11.30;99.90;;;;;;5071646;28;19904;-52
2022/05/31 06:17:53;;;;;;;;;;;11.50;99.90;;;;;;5071480;28;19912;-52
2022/05/31 06:20:19;;;;;;;;;;;11.50;99.90;;;;;;5071686;28;19963;-47
2022/05/31 06:22:45;;;;;;;;;;;11.50;99.90;;;;;;5071378;28;19916;-50
2022/05/31 06:25:13;;;;;;;;;;;11.60;99.90;;;;;;5071552;28;19948;-50
2022/05/31 06:27:38;;;;;;;;;;;11.70;99.90;;;;;;5071594;28;19901;-48
2022/05/31 06:30:04;;;;;;;;;;;11.80;99.90;;;;;;5071406;28;19908;-49
2022/05/31 06:32:30;;;;;;;;;;;12.10;99.90;;;;;;5071557;28;20042;-50
2022/05/31 06:34:56;;;;;;;;;;;12.30;99.90;;;;;;5071351;28;19908;-49
2022/05/31 06:37:21;;;;;;;;;;;12.40;99.90;;;;;;5071565;28;19912;-48
2022/05/31 06:39:47;;;;;;;;;;;12.50;99.90;;;;;;5071094;28;20034;-48
2022/05/31 06:42:12;;;;;;;;;;;12.60;99.90;;;;;;5071404;28;20006;-48
2022/05/31 06:44:39;;;;;;;;;;;12.60;99.90;;;;;;5071442;28;19924;-48
2022/05/31 06:47:05;;;;;;;;;;;12.70;99.90;;;;;;5071308;28;19943;-50
2022/05/31 06:49:31;;;;;;;;;;;12.60;99.90;;;;;;5071328;28;20000;-48
2022/05/31 06:57:38;;;;;;;;;;;12.50;99.90;;;;;;5074189;28;19911;-48
2022/05/31 07:00:06;;;;;;;;;;;12.50;99.90;;;;;;5074534;28;20595;-53
2022/05/31 07:02:32;;;;;;;;;;;12.60;99.90;;;;;;5074831;28;19912;-52
2022/05/31 07:04:58;;;;;;;;;;;12.70;99.90;;;;;;5074590;28;20356;-50
2022/05/31 07:07:23;;;;;;;;;;;12.80;99.90;;;;;;5074777;28;20591;-55
2022/05/31 07:09:49;;;;;;;;;;;12.90;99.90;;;;;;5074531;28;19904;-50
2022/05/31 07:12:15;;;;;;;;;;;13.10;99.90;;;;;;5074485;28;20382;-52
2022/05/31 07:14:40;;;;;;;;;;;13.20;99.90;;;;;;5074580;28;19909;-53
2022/05/31 07:17:06;;;;;;;;;;;13.20;99.90;;;;;;5074313;28;19911;-52
2022/05/31 07:19:32;;;;;;;;;;;13.20;99.90;;;;;;5074314;28;19914;-50
2022/05/31 07:21:58;;;;;;;;;;;13.30;99.90;;;;;;5073015;28;19911;-51
2022/05/31 07:24:24;;;;;;;;;;;13.50;99.90;;;;;;5074088;28;19916;-54
2022/05/31 07:26:50;;;;;;;;;;;13.50;99.90;;;;;;5074099;28;19905;-52
2022/05/31 07:29:16;;;;;;;;;;;13.50;99.90;;;;;;5074387;28;19958;-48
2022/05/31 07:31:44;;;;;;;;;;;13.70;99.90;;;;;;5074235;28;19904;-50
2022/05/31 07:34:17;;;;;;;;;;;13.60;99.90;;;;;;5072875;28;19996;-50
2022/05/31 07:36:43;;;;;;;;;;;13.70;99.90;;;;;;5074491;28;19910;-49
2022/05/31 07:39:10;;;;;;;;;;;13.80;99.90;;;;;;5073921;28;19909;-50
2022/05/31 07:41:35;;;;;;;;;;;14.00;99.90;;;;;;5074091;28;19912;-51
2022/05/31 07:44:01;;;;;;;;;;;13.90;99.90;;;;;;5073783;28;20331;-49
2022/05/31 07:46:28;;;;;;;;;;;14.20;99.90;;;;;;5074093;28;20359;-48
2022/05/31 07:48:54;;;;;;;;;;;14.30;99.90;;;;;;5073706;28;19904;-54
2022/05/31 07:51:19;;;;;;;;;;;14.40;99.90;;;;;;5073804;28;19999;-52
2022/05/31 07:53:45;;;;;;;;;;;14.50;99.90;;;;;;5071235;28;20276;-50
2022/05/31 07:56:10;;;;;;;;;;;14.60;99.90;;;;;;5072290;28;19904;-49
2022/05/31 07:58:37;;;;;;;;;;;14.70;99.90;;;;;;5072566;28;19908;-50
2022/05/31 08:01:04;;;;;;;;;;;14.90;99.90;;;;;;5072291;28;19999;-50
2022/05/31 08:03:30;;;;;;;;;;;14.80;99.90;;;;;;5072664;28;19904;-49
2022/05/31 08:05:57;;;;;;;;;;;15.00;99.90;;;;;;5072830;28;19904;-49
2022/05/31 08:08:22;;;;;;;;;;;15.20;99.90;;;;;;5072696;28;19904;-47
2022/05/31 08:10:48;;;;;;;;;;;15.40;99.90;;;;;;5072341;28;19911;-49
2022/05/31 08:13:13;;;;;;;;;;;15.40;99.90;;;;;;5072412;28;19905;-47
2022/05/31 08:15:39;;;;;;;;;;;15.70;99.90;;;;;;5073270;28;20370;-53
2022/05/31 08:18:05;;;;;;;;;;;15.60;99.90;;;;;;5073086;28;19924;-52
2022/05/31 08:20:30;;;;;;;;;;;15.60;99.90;;;;;;5071936;28;19904;-52
2022/05/31 08:22:56;;;;;;;;;;;15.80;99.90;;;;;;5072909;28;19917;-49
2022/05/31 08:25:21;;;;;;;;;;;16.10;99.90;;;;;;5073170;28;19904;-52
2022/05/31 08:27:47;;;;;;;;;;;16.20;99.90;;;;;;5073162;28;20422;-48
2022/05/31 08:30:13;;;;;;;;;;;16.30;99.90;;;;;;5071707;28;19948;-52
2022/05/31 08:32:39;;;;;;;;;;;16.50;99.90;;;;;;5072920;28;20417;-54
2022/05/31 08:35:05;;;;;;;;;;;16.70;99.90;;;;;;5088388;28;19958;-53
2022/05/31 08:37:31;;;;;;;;;;;16.80;99.00;;;;;;5072882;28;19928;-49
2022/05/31 08:39:56;;;;;;;;;;;16.70;99.50;;;;;;5072739;28;19908;-53
2022/05/31 08:42:27;;;;;;;;;;;16.80;99.90;;;;;;5072988;28;20488;-55
2022/05/31 08:45:01;;;;;;;;;;;16.90;98.20;;;;;;5072730;28;19954;-55
2022/05/31 08:47:31;;;;;;;;;;;16.90;98.40;;;;;;5070884;28;19910;-51
2022/05/31 08:53:02;;;;;;;;;;;17.60;98.60;;;;;;5072460;28;19959;-50
2022/05/31 08:58:30;;;;;;;;;;;17.70;97.50;;;;;;5072653;28;19919;-54
2022/05/31 09:00:57;;;;;;;;;;;17.70;95.00;;;;;;5072290;28;19958;-56
2022/05/31 09:03:29;;;;;;;;;;;18.00;97.00;;;;;;5072478;28;19908;-52
2022/05/31 09:05:59;;;;;;;;;;;17.90;94.80;;;;;;5072243;28;20001;-52
2022/05/31 09:08:28;;;;;;;;;;;18.10;94.60;;;;;;5072355;28;20426;-51
2022/05/31 09:10:59;;;;;;;;;;;18.30;96.60;;;;;;5072379;28;19904;-54
2022/05/31 09:13:25;;;;;;;;;;;18.60;96.20;;;;;;5072008;28;19911;-53
2022/05/31 09:15:59;;;;;;;;;;;18.80;98.10;;;;;;5071787;28;19912;-52
2022/05/31 09:18:38;;;;;;;;;;;18.70;94.40;;;;;;5071027;28;20318;-53
2022/05/31 09:21:05;;;;;;;;;;;18.80;95.60;;;;;;5072133;28;19932;-49
2022/05/31 09:23:31;;;;;;;;;;;18.90;95.00;;;;;;5072136;28;20375;-55
2022/05/31 09:26:02;;;;;;;;;;;19.10;95.20;;;;;;5070669;28;19911;-54
2022/05/31 09:28:42;;;;;;;;;;;19.40;95.20;;;;;;5072203;28;19930;-55
2022/05/31 09:31:27;;;;;;;;;;;19.40;95.80;;;;;;5072011;28;19905;-52
2022/05/31 09:34:06;;;;;;;;;;;19.70;95.40;;;;;;5071947;28;19912;-53
2022/05/31 09:36:37;;;;;;;;;;;19.80;92.90;;;;;;5072018;28;19905;-53
2022/05/31 09:39:09;;;;;;;;;;;20.00;93.10;;;;;;5071860;28;19940;-53
2022/05/31 09:41:53;;;;;;;;;;;19.90;93.40;;;;;;5071462;28;19936;-54
2022/05/31 09:44:31;;;;;;;;;;;19.90;92.80;;;;;;5072063;28;19987;-54
2022/05/31 09:47:03;;;;;;;;;;;20.00;93.50;;;;;;5071753;28;19995;-54
2022/05/31 09:49:36;;;;;;;;;;;20.00;88.30;;;;;;5071774;28;19904;-54
2022/05/31 09:52:03;;;;;;;;;;;20.00;87.40;;;;;;5070049;28;19911;-51
2022/05/31 09:57:19;;;;;;;;;;;20.50;89.80;;;;;;5072125;28;19912;-55
2022/05/31 09:59:49;;;;;;;;;;;20.60;86.40;;;;;;5071777;28;20403;-54
2022/05/31 10:02:32;;;;;;;;;;;20.60;89.70;;;;;;5071748;28;20304;-49
2022/05/31 10:05:15;;;;;;;;;;;20.70;90.70;;;;;;5071623;28;19901;-50
2022/05/31 10:07:41;;;;;;;;;;;21.10;90.80;;;;;;5071663;28;19978;-54
2022/05/31 10:10:09;;;;;;;;;;;21.40;86.10;;;;;;5071649;28;19935;-52
2022/05/31 10:12:35;;;;;;;;;;;20.90;85.30;;;;;;5071668;28;20485;-50
2022/05/31 10:15:03;;;;;;;;;;;21.10;83.50;;;;;;5071489;28;19905;-52
2022/05/31 10:17:32;;;;;;;;;;;21.10;81.30;;;;;;5071649;28;19900;-53
2022/05/31 10:20:18;;;;;;;;;;;21.50;78.60;;;;;;5071348;28;19977;-49
2022/05/31 10:22:55;;;;;;;;;;;21.80;85.30;;;;;;5071443;28;19936;-52
2022/05/31 10:25:29;;;;;;;;;;;22.00;80.30;;;;;;5070959;28;20332;-55
2022/05/31 10:27:59;;;;;;;;;;;22.20;79.60;;;;;;5075484;28;19904;-54
2022/05/31 10:30:25;;;;;;;;;;;22.50;74.80;;;;;;5075387;28;20018;-51
2022/05/31 10:32:52;;;;;;;;;;;22.90;74.40;;;;;;5075407;28;19931;-56
2022/05/31 10:35:28;;;;;;;;;;;22.60;70.00;;;;;;5075370;28;19904;-54
2022/05/31 10:37:57;;;;;;;;;;;22.80;71.80;;;;;;5075059;28;20395;-53
2022/05/31 10:40:31;;;;;;;;;;;23.10;70.50;;;;;;5075015;28;20248;-54
2022/05/31 10:42:59;;;;;;;;;;;22.90;68.80;;;;;;5074479;28;19905;-53
2022/05/31 10:45:26;;;;;;;;;;;22.90;68.40;;;;;;5074627;28;20233;-51
2022/05/31 10:47:56;;;;;;;;;;;22.70;67.40;;;;;;5074937;28;19912;-51
2022/05/31 10:50:33;;;;;;;;;;;23.10;71.90;;;;;;5075017;28;19911;-54
2022/05/31 10:53:14;;;;;;;;;;;23.40;68.60;;;;;;5074468;28;20309;-52
2022/05/31 10:55:41;;;;;;;;;;;23.20;68.30;;;;;;5073574;28;19904;-53
2022/05/31 10:58:29;;;;;;;;;;;23.40;67.50;;;;;;5074554;28;19965;-55
2022/05/31 11:01:13;;;;;;;;;;;23.60;67.50;;;;;;5074457;28;19974;-55
2022/05/31 11:03:45;;;;;;;;;;;24.10;68.20;;;;;;5074965;28;19904;-53
2022/05/31 11:06:14;;;;;;;;;;;24.10;68.50;;;;;;5074571;28;19911;-54
2022/05/31 11:11:29;;;;;;;;;;;25.10;62.30;;;;;;5074644;28;19911;-55
2022/05/31 11:13:59;;;;;;;;;;;25.50;60.90;;;;;;5074284;28;19960;-52
2022/05/31 11:16:24;;;;;;;;;;;25.50;61.00;;;;;;5074803;28;19912;-51
2022/05/31 11:19:01;;;;;;;;;;;25.60;64.00;;;;;;5074116;28;20288;-55
2022/05/31 11:21:33;;;;;;;;;;;25.50;60.80;;;;;;5074448;28;19904;-53
2022/05/31 11:23:58;;;;;;;;;;;25.10;60.50;;;;;;5074104;28;20469;-52
2022/05/31 11:26:30;;;;;;;;;;;25.20;60.30;;;;;;5074290;28;19904;-55
2022/05/31 11:28:56;;;;;;;;;;;25.30;61.20;;;;;;5074161;28;20292;-54
2022/05/31 11:31:30;;;;;;;;;;;25.90;62.90;;;;;;5074284;28;19911;-55
2022/05/31 11:34:15;;;;;;;;;;;25.80;59.80;;;;;;5073952;28;19904;-57
2022/05/31 11:36:59;;;;;;;;;;;25.40;62.30;;;;;;5073483;28;19911;-54
2022/05/31 11:39:25;;;;;;;;;;;25.50;59.30;;;;;;5074097;28;19912;-56
2022/05/31 11:41:59;;;;;;;;;;;25.10;60.80;;;;;;5073968;28;19905;-56
2022/05/31 11:44:25;;;;;;;;;;;24.60;63.20;;;;;;5074060;28;19944;-53
2022/05/31 11:46:50;;;;;;;;;;;24.40;61.70;;;;;;5073928;28;19915;-56
2022/05/31 11:49:35;;;;;;;;;;;24.80;63.70;;;;;;5073850;28;19958;-55
2022/05/31 11:52:08;;;;;;;;;;;24.70;61.80;;;;;;5073814;28;19911;-56
2022/05/31 11:54:41;;;;;;;;;;;24.50;59.90;;;;;;5073851;28;19900;-55
2022/05/31 11:57:06;;;;;;;;;;;24.80;58.10;;;;;;5073690;28;20335;-56
2022/05/31 11:59:34;;;;;;;;;;;25.00;57.00;;;;;;5073709;28;19956;-53
2022/05/31 12:02:05;;;;;;;;;;;24.90;58.10;;;;;;5073642;28;19904;-56
2022/05/31 12:04:36;;;;;;;;;;;24.80;62.80;;;;;;5073585;28;20241;-55
2022/05/31 12:07:21;;;;;;;;;;;25.20;62.20;;;;;;5073387;28;20003;-51
2022/05/31 12:09:56;;;;;;;;;;;25.80;57.60;;;;;;5073427;28;20401;-56
2022/05/31 12:12:31;;;;;;;;;;;26.50;57.00;;;;;;5073659;28;19904;-56
2022/05/31 12:15:15;;;;;;;;;;;27.20;57.80;;;;;;5073288;28;19904;-53
2022/05/31 12:18:03;;;;;;;;;;;27.60;53.70;;;;;;5072021;28;20240;-56
2022/05/31 12:20:47;;;;;;;;;;;27.80;52.80;;;;;;5073514;28;20003;-54
2022/05/31 12:23:32;;;;;;;;;;;28.80;50.90;;;;;;5073252;28;20362;-57
2022/05/31 12:25:59;;;;;;;;;;;28.70;46.60;;;;;;5072994;28;19905;-57
2022/05/31 12:28:42;;;;;;;;;;;30.00;49.40;;;;;;5073181;28;19904;-57
2022/05/31 12:31:09;;;;;;;;;;;30.20;46.30;;;;;;5073014;28;19915;-57
2022/05/31 12:33:49;;;;;;;;;;;30.50;42.20;;;;;;5072808;28;19909;-58
2022/05/31 12:36:21;;;;;;;;;;;30.90;40.40;;;;;;5072165;28;19904;-58
2022/05/31 12:39:23;;;;;;;;;;;31.70;44.10;;;;;;5072017;28;19931;-57
2022/05/31 12:41:51;;;;;;;;;;;33.40;43.10;;;;;;5050042;28;19905;-55
2022/05/31 12:44:25;;;;;;;;;;;32.20;39.80;;;;;;5068651;28;19970;-56
2022/05/31 12:46:51;;;;;;;;;;;32.20;40.60;;;;;;5072434;28;19951;-56
2022/05/31 12:49:17;;;;;;;;;;;31.00;38.10;;;;;;5072720;28;20271;-55
2022/05/31 12:52:03;;;;;;;;;;;31.30;41.00;;;;;;5072757;28;20287;-55
2022/05/31 12:54:42;;;;;;;;;;;30.50;38.40;;;;;;5072644;28;19908;-55
2022/05/31 12:57:19;;;;;;;;;;;30.50;39.40;;;;;;5072369;28;19904;-55
2022/05/31 12:59:46;;;;;;;;;;;30.20;39.10;;;;;;5072463;28;19955;-55
2022/05/31 13:02:20;;;;;;;;;;;29.80;40.50;;;;;;5072375;28;19905;-55
2022/05/31 13:04:55;;;;;;;;;;;29.30;40.30;;;;;;5072428;28;19900;-55
2022/05/31 13:07:38;;;;;;;;;;;29.40;37.80;;;;;;5072880;28;19904;-55
2022/05/31 13:10:22;;;;;;;;;;;29.40;38.90;;;;;;5072373;28;19904;-56
2022/05/31 13:21:06;;;;;;;;;;;31.80;38.70;;;;;;5072418;28;20038;-55
2022/05/31 13:23:46;;;;;;;;;;;30.80;37.90;;;;;;5072188;28;19920;-56
2022/05/31 13:26:20;;;;;;;;;;;30.80;38.60;;;;;;5070916;28;20054;-56
2022/05/31 13:28:55;;;;;;;;;;;31.00;40.50;;;;;;5070828;28;19908;-56
2022/05/31 13:31:22;;;;;;;;;;;31.20;38.00;;;;;;5072045;28;19905;-58
2022/05/31 13:34:00;;;;;;;;;;;31.00;38.50;;;;;;5072089;28;20283;-57
2022/05/31 13:36:27;;;;;;;;;;;31.30;41.10;;;;;;5072203;28;19911;-57
2022/05/31 13:39:09;;;;;;;;;;;31.80;38.70;;;;;;5071820;28;19916;-57
2022/05/31 13:41:43;;;;;;;;;;;31.30;37.30;;;;;;5070778;28;20329;-54
2022/05/31 13:44:08;;;;;;;;;;;30.60;39.50;;;;;;5071695;28;20424;-56
2022/05/31 13:46:39;;;;;;;;;;;30.60;41.20;;;;;;5071975;28;19958;-57
2022/05/31 13:49:10;;;;;;;;;;;30.70;37.20;;;;;;5071860;28;19909;-56
2022/05/31 13:51:47;;;;;;;;;;;31.60;38.50;;;;;;5072045;28;19905;-57
2022/05/31 13:54:14;;;;;;;;;;;31.60;36.70;;;;;;5071877;28;19908;-58
2022/05/31 13:56:42;;;;;;;;;;;32.50;39.10;;;;;;5071986;28;20375;-57
2022/05/31 13:59:07;;;;;;;;;;;32.80;38.50;;;;;;5071660;28;19915;-56
2022/05/31 14:01:47;;;;;;;;;;;32.80;38.20;;;;;;5074843;28;20268;-57
2022/05/31 14:04:21;;;;;;;;;;;31.60;36.90;;;;;;5075896;28;19943;-55
2022/05/31 14:06:47;;;;;;;;;;;30.10;39.10;;;;;;5075967;28;19904;-57
2022/05/31 14:09:17;;;;;;;;;;;29.40;39.90;;;;;;5075739;28;19936;-57
2022/05/31 14:11:49;;;;;;;;;;;28.80;40.90;;;;;;5074558;28;19905;-56
2022/05/31 14:14:32;;;;;;;;;;;28.90;41.40;;;;;;5075646;28;19904;-57
2022/05/31 14:16:59;;;;;;;;;;;28.60;41.20;;;;;;5075576;28;19905;-54
2022/05/31 14:19:26;;;;;;;;;;;28.30;44.60;;;;;;5073875;28;19977;-56
2022/05/31 14:21:53;;;;;;;;;;;28.20;45.20;;;;;;5075186;28;20363;-57
2022/05/31 14:24:23;;;;;;;;;;;28.40;44.90;;;;;;5073958;28;19916;-57
2022/05/31 14:26:51;;;;;;;;;;;29.10;45.10;;;;;;5075028;28;20362;-55
2022/05/31 14:29:16;;;;;;;;;;;29.40;43.80;;;;;;5075226;28;19911;-57
2022/05/31 14:31:46;;;;;;;;;;;29.50;40.90;;;;;;5075329;28;19905;-56
2022/05/31 14:34:26;;;;;;;;;;;29.60;41.90;;;;;;5075343;28;19937;-57
2022/05/31 14:36:53;;;;;;;;;;;29.50;42.90;;;;;;5074615;28;19904;-56
2022/05/31 14:39:20;;;;;;;;;;;28.50;43.10;;;;;;5073801;28;19908;-55
2022/05/31 14:41:46;;;;;;;;;;;27.70;45.00;;;;;;5074366;28;19911;-56
2022/05/31 14:44:30;;;;;;;;;;;27.30;44.20;;;;;;5043583;28;19916;-54
2022/05/31 14:47:06;;;;;;;;;;;26.90;45.20;;;;;;5056194;28;19909;-57
2022/05/31 14:49:38;;;;;;;;;;;26.50;45.50;;;;;;5044149;28;19959;-57
2022/05/31 14:52:17;;;;;;;;;;;25.90;45.70;;;;;;5056026;28;20511;-56
2022/05/31 14:54:44;;;;;;;;;;;25.90;46.80;;;;;;5064239;28;19908;-56
2022/05/31 14:57:25;;;;;;;;;;;25.80;47.10;;;;;;5052577;28;19962;-54
2022/05/31 14:59:53;;;;;;;;;;;25.40;49.10;;;;;;5062986;28;20005;-57
2022/05/31 15:02:21;;;;;;;;;;;25.10;49.70;;;;;;5048474;28;19948;-54